createdAt,value
2022-12-28T00:01:38.476Z,3.80
2022-12-28T00:04:09.137Z,4.20
2022-12-28T00:06:39.087Z,4.03
2022-12-28T00:09:09.157Z,4.23
2022-12-28T00:11:40.762Z,4.37
2022-12-28T00:14:10.903Z,4.50
2022-12-28T00:16:44.516Z,3.57
2022-12-28T00:19:16.258Z,3.97
2022-12-28T00:21:47.117Z,4.73
2022-12-28T00:24:20.962Z,3.77
2022-12-28T00:26:51.118Z,3.92
2022-12-28T00:29:21.766Z,5.23
2022-12-28T00:31:54.380Z,3.97
2022-12-28T00:34:27.333Z,3.73
2022-12-28T00:37:11.593Z,4.20
2022-12-28T00:39:44.199Z,5.30
2022-12-28T00:42:18.240Z,3.83
2022-12-28T00:44:48.193Z,3.93
2022-12-28T00:47:22.124Z,4.93
2022-12-28T00:49:52.064Z,4.03
2022-12-28T00:52:22.084Z,4.83
2022-12-28T00:54:52.097Z,4.77
2022-12-28T00:57:22.057Z,4.43
2022-12-28T00:59:52.017Z,4.30
2022-12-28T01:02:24.537Z,4.83
2022-12-28T01:04:54.473Z,4.50
2022-12-28T01:07:24.395Z,4.43
2022-12-28T01:09:54.373Z,4.67
2022-12-28T01:12:24.577Z,4.77
2022-12-28T01:14:54.517Z,4.83
2022-12-28T01:17:27.008Z,4.83
2022-12-28T01:19:56.984Z,5.43
2022-12-28T01:22:26.973Z,5.30
2022-12-28T01:24:57.049Z,5.60
2022-12-28T01:27:26.988Z,4.70
2022-12-28T01:29:57.502Z,5.10
2022-12-28T01:32:30.032Z,4.77
2022-12-28T01:34:59.988Z,5.00
2022-12-28T01:37:29.908Z,5.53
2022-12-28T01:40:00.975Z,5.33
2022-12-28T01:42:30.925Z,5.73
2022-12-28T01:45:19.415Z,6.10
2022-12-28T01:47:54.711Z,6.17
2022-12-28T01:50:28.646Z,7.57
2022-12-28T01:53:01.997Z,6.40
2022-12-28T01:55:35.738Z,5.93
2022-12-28T01:58:10.274Z,6.50
2022-12-28T02:03:18.129Z,6.07
2022-12-28T02:05:52.693Z,7.33
2022-12-28T02:08:28.701Z,7.55
2022-12-28T02:10:59.944Z,6.57
2022-12-28T02:13:30.767Z,7.57
2022-12-28T02:16:00.851Z,8.27
2022-12-28T02:18:33.511Z,7.57
2022-12-28T02:21:29.383Z,8.17
2022-12-28T02:24:36.130Z,8.83
2022-12-28T02:27:14.505Z,7.90
2022-12-28T02:30:04.484Z,8.27
2022-12-28T02:32:58.872Z,8.13
2022-12-28T02:35:37.450Z,8.65
2022-12-28T02:38:13.340Z,9.07
2022-12-28T02:40:47.256Z,9.47
2022-12-28T02:43:17.993Z,11.00
2022-12-28T02:46:03.903Z,11.00
2022-12-28T02:48:54.943Z,9.47
2022-12-28T02:51:49.537Z,9.30
2022-12-28T02:55:02.826Z,10.70
2022-12-28T02:57:53.109Z,10.60
2022-12-28T03:00:26.521Z,9.63
2022-12-28T03:03:11.185Z,10.43
2022-12-28T03:06:05.743Z,10.37
2022-12-28T03:08:46.540Z,9.83
2022-12-28T03:11:20.886Z,10.43
2022-12-28T03:13:58.453Z,10.98
2022-12-28T03:16:32.341Z,10.97
2022-12-28T03:19:20.959Z,10.13
2022-12-28T03:22:04.614Z,10.87
2022-12-28T03:24:49.536Z,10.57
2022-12-28T03:27:37.236Z,11.30
2022-12-28T03:30:26.149Z,12.07
2022-12-28T03:32:56.787Z,9.90
2022-12-28T03:35:36.430Z,12.03
2022-12-28T03:38:07.444Z,10.80
2022-12-28T03:40:47.230Z,13.73
2022-12-28T03:43:36.357Z,12.00
2022-12-28T03:46:11.259Z,10.87
2022-12-28T03:48:44.629Z,12.07
2022-12-28T03:51:22.454Z,11.93
2022-12-28T03:53:53.205Z,12.23
2022-12-28T03:56:27.791Z,12.03
2022-12-28T03:59:00.109Z,11.13
2022-12-28T04:01:38.833Z,10.03
2022-12-28T04:04:08.908Z,10.90
2022-12-28T04:06:41.450Z,11.30
2022-12-28T04:09:11.648Z,11.33
2022-12-28T04:11:44.352Z,10.73
2022-12-28T04:14:22.329Z,11.17
2022-12-28T04:16:52.804Z,10.57
2022-12-28T04:19:23.946Z,11.87
2022-12-28T04:21:57.850Z,11.10
2022-12-28T04:24:27.872Z,12.90
2022-12-28T04:26:58.282Z,12.00
2022-12-28T04:29:28.285Z,11.83
2022-12-28T04:32:04.236Z,11.10
2022-12-28T04:34:34.254Z,11.00
2022-12-28T04:37:14.090Z,10.40
2022-12-28T04:39:55.321Z,11.05
2022-12-28T04:42:27.184Z,9.33
2022-12-28T04:44:57.167Z,10.70
2022-12-28T04:47:27.120Z,10.00
2022-12-28T04:49:57.057Z,8.90
2022-12-28T04:52:29.619Z,10.53
2022-12-28T04:54:59.541Z,9.90
2022-12-28T04:57:29.505Z,9.17
2022-12-28T04:59:59.503Z,8.33
2022-12-28T05:02:29.728Z,9.13
2022-12-28T05:04:59.794Z,9.97
2022-12-28T05:07:32.443Z,10.20
2022-12-28T05:10:02.386Z,8.73
2022-12-28T05:12:32.362Z,9.83
2022-12-28T05:15:02.338Z,8.77
2022-12-28T05:17:32.253Z,8.60
2022-12-28T05:20:02.196Z,9.37
2022-12-28T05:22:40.499Z,9.63
2022-12-28T05:25:11.604Z,8.93
2022-12-28T05:27:41.503Z,8.50
2022-12-28T05:30:12.941Z,9.07
2022-12-28T05:32:42.903Z,8.67
2022-12-28T05:35:13.172Z,8.80
2022-12-28T05:37:45.675Z,10.53
2022-12-28T05:40:15.682Z,8.67
2022-12-28T05:42:51.254Z,8.33
2022-12-28T05:45:22.632Z,8.43
2022-12-28T05:47:53.514Z,8.27
2022-12-28T05:50:24.692Z,8.73
2022-12-28T05:52:59.151Z,8.83
2022-12-28T05:55:29.542Z,8.60
2022-12-28T05:57:59.833Z,8.80
2022-12-28T06:00:30.086Z,8.27
2022-12-28T06:03:00.565Z,8.77
2022-12-28T06:05:30.948Z,8.33
2022-12-28T06:08:03.671Z,9.07
2022-12-28T06:10:33.662Z,9.17
2022-12-28T06:13:03.670Z,8.50
2022-12-28T06:15:33.791Z,9.00
2022-12-28T06:18:04.049Z,8.63
2022-12-28T06:20:34.038Z,8.63
2022-12-28T06:23:06.652Z,9.07
2022-12-28T06:25:36.744Z,9.10
2022-12-28T06:28:07.204Z,8.20
2022-12-28T06:30:37.210Z,8.03
2022-12-28T06:33:07.211Z,9.53
2022-12-28T06:35:37.220Z,8.93
2022-12-28T06:38:09.834Z,6.67
2022-12-28T06:41:11.823Z,8.60
2022-12-28T06:43:29.777Z,7.83
2022-12-28T06:46:00.025Z,8.33
2022-12-28T06:48:30.294Z,8.13
2022-12-28T06:51:01.866Z,8.53
2022-12-28T06:53:36.857Z,7.93
2022-12-28T06:56:08.824Z,7.97
2022-12-28T06:58:39.794Z,8.00
2022-12-28T07:01:10.989Z,8.90
2022-12-28T07:03:41.179Z,9.13
2022-12-28T07:06:11.647Z,9.13
2022-12-28T07:08:46.167Z,9.20
2022-12-28T07:13:47.323Z,9.20
2022-12-28T07:16:19.485Z,8.73
2022-12-28T07:18:52.971Z,9.40
2022-12-28T07:21:26.410Z,8.33
2022-12-28T07:24:00.464Z,9.33
2022-12-28T07:26:32.650Z,8.25
2022-12-28T07:29:04.155Z,8.97
2022-12-28T07:31:43.781Z,9.50
2022-12-28T07:34:15.247Z,8.33
2022-12-28T07:36:45.650Z,10.00
2022-12-28T07:39:18.184Z,10.20
2022-12-28T07:41:49.133Z,8.50
2022-12-28T07:44:29.277Z,9.18
2022-12-28T07:46:59.569Z,10.20
2022-12-28T07:49:29.456Z,9.17
2022-12-28T07:51:59.422Z,8.43
2022-12-28T07:54:31.978Z,8.80
2022-12-28T07:57:01.982Z,9.18
2022-12-28T07:59:31.961Z,8.07
2022-12-28T08:02:02.306Z,9.73
2022-12-28T08:04:32.417Z,9.47
2022-12-28T08:07:02.464Z,9.13
2022-12-28T08:09:34.993Z,8.17
2022-12-28T08:12:05.275Z,10.40
2022-12-28T08:14:35.557Z,16.17
2022-12-28T08:17:05.526Z,8.93
2022-12-28T08:19:36.087Z,9.43
2022-12-28T08:22:06.024Z,9.23
2022-12-28T08:24:38.582Z,8.40
2022-12-28T08:27:08.496Z,7.25
2022-12-28T08:29:39.620Z,7.88
2022-12-28T08:32:09.633Z,7.28
2022-12-28T08:34:39.583Z,8.70
2022-12-28T08:37:09.565Z,7.63
2022-12-28T08:39:42.093Z,7.90
2022-12-28T08:42:12.100Z,7.18
2022-12-28T08:44:42.395Z,6.10
2022-12-28T08:47:12.393Z,6.93
2022-12-28T08:49:44.514Z,7.38
2022-12-28T08:52:15.572Z,7.47
2022-12-28T08:54:48.269Z,7.78
2022-12-28T08:57:18.384Z,6.55
2022-12-28T08:59:48.418Z,7.80
2022-12-28T09:02:18.533Z,6.22
2022-12-28T09:04:48.638Z,6.05
2022-12-28T09:07:18.624Z,5.70
2022-12-28T09:09:51.181Z,6.43
2022-12-28T09:12:21.488Z,6.70
2022-12-28T09:14:51.419Z,5.82
2022-12-28T09:17:21.321Z,5.32
2022-12-28T09:19:51.339Z,5.55
2022-12-28T09:22:21.309Z,5.15
2022-12-28T09:24:53.899Z,5.32
2022-12-28T09:27:23.917Z,4.45
2022-12-28T09:29:53.964Z,5.07
2022-12-28T09:32:23.915Z,5.40
2022-12-28T09:34:54.203Z,5.13
2022-12-28T09:37:24.152Z,5.18
2022-12-28T09:40:01.188Z,4.20
2022-12-28T09:42:32.776Z,5.13
2022-12-28T09:45:06.375Z,4.88
2022-12-28T09:47:41.219Z,6.05
2022-12-28T09:50:30.240Z,6.22
2022-12-28T09:53:20.197Z,4.75
2022-12-28T09:56:00.618Z,4.10
2022-12-28T09:58:32.374Z,4.50
2022-12-28T10:01:04.519Z,4.85
2022-12-28T10:03:40.580Z,4.05
2022-12-28T10:06:15.570Z,4.10
2022-12-28T10:08:49.054Z,3.97
2022-12-28T10:11:25.544Z,4.17
2022-12-28T10:13:58.436Z,3.38
2022-12-28T10:16:32.658Z,4.18
2022-12-28T10:19:03.173Z,3.47
2022-12-28T10:21:36.274Z,4.18
2022-12-28T10:27:07.177Z,3.53
2022-12-28T10:29:37.552Z,4.05
2022-12-28T10:32:09.508Z,3.58
2022-12-28T10:34:40.367Z,3.25
2022-12-28T10:37:16.868Z,3.60
2022-12-28T10:39:55.461Z,3.72
2022-12-28T10:42:30.965Z,3.38
2022-12-28T10:45:06.296Z,4.05
2022-12-28T10:47:39.511Z,3.97
2022-12-28T10:50:35.989Z,3.95
2022-12-28T10:53:01.231Z,3.40
2022-12-28T10:55:33.509Z,4.25
2022-12-28T10:58:33.079Z,3.90
2022-12-28T11:01:08.119Z,4.10
2022-12-28T11:03:40.692Z,5.38
2022-12-28T11:06:26.614Z,3.80
2022-12-28T11:09:07.503Z,3.88
2022-12-28T11:11:37.654Z,3.40
2022-12-28T11:14:19.281Z,3.10
2022-12-28T11:16:49.303Z,3.17
2022-12-28T11:19:19.803Z,3.88
2022-12-28T11:21:49.972Z,2.95
2022-12-28T11:24:21.264Z,3.10
2022-12-28T11:26:52.971Z,3.20
2022-12-28T11:29:25.572Z,3.55
2022-12-28T11:32:04.043Z,3.22
2022-12-28T11:34:35.092Z,3.28
2022-12-28T11:37:06.517Z,3.03
2022-12-28T11:39:46.553Z,3.28
2022-12-28T11:42:51.647Z,3.40
2022-12-28T11:45:52.747Z,4.75
2022-12-28T11:48:41.831Z,3.55
2022-12-28T11:51:19.368Z,3.45
2022-12-28T11:53:58.454Z,3.15
2022-12-28T11:56:30.241Z,3.10
2022-12-28T11:59:25.375Z,2.58
2022-12-28T12:04:35.522Z,4.13
2022-12-28T12:07:48.590Z,6.75
2022-12-28T12:10:36.599Z,2.72
2022-12-28T12:13:51.437Z,2.38
2022-12-28T12:16:29.893Z,2.37
2022-12-28T12:19:03.825Z,2.67
2022-12-28T12:21:37.637Z,2.13
2022-12-28T12:24:28.079Z,4.32
2022-12-28T12:27:10.191Z,1.80
2022-12-28T12:29:43.842Z,2.38
2022-12-28T12:32:20.846Z,2.60
2022-12-28T12:34:57.306Z,2.08
2022-12-28T12:37:40.039Z,2.50
2022-12-28T12:40:27.102Z,2.05
2022-12-28T12:43:15.669Z,2.47
2022-12-28T12:45:56.381Z,2.92
2022-12-28T12:48:48.142Z,2.65
2022-12-28T12:51:29.786Z,2.55
2022-12-28T12:54:15.418Z,2.00
2022-12-28T12:56:52.348Z,1.50
2022-12-28T12:59:39.085Z,1.58
2022-12-28T13:02:32.553Z,2.15
2022-12-28T13:05:06.866Z,2.00
2022-12-28T13:07:39.536Z,1.60
2022-12-28T13:10:16.855Z,1.75
2022-12-28T13:12:47.167Z,1.85
2022-12-28T13:15:19.951Z,1.73
2022-12-28T13:20:57.808Z,1.20
2022-12-28T13:23:32.468Z,1.30
2022-12-28T13:26:04.453Z,1.63
2022-12-28T13:28:37.533Z,2.38
2022-12-28T13:31:11.714Z,2.85
2022-12-28T13:33:42.048Z,1.20
2022-12-28T13:36:17.525Z,1.40
2022-12-28T13:38:50.227Z,1.35
2022-12-28T13:41:25.481Z,1.25
2022-12-28T13:44:17.190Z,1.30
2022-12-28T13:46:51.010Z,1.63
2022-12-28T13:49:23.043Z,1.98
2022-12-28T13:51:54.034Z,1.17
2022-12-28T13:54:28.067Z,1.00
2022-12-28T13:57:28.334Z,1.63
2022-12-28T13:59:50.574Z,1.35
2022-12-28T14:02:23.737Z,1.63
2022-12-28T14:04:55.156Z,1.45
2022-12-28T14:07:30.472Z,6.22
2022-12-28T14:10:03.347Z,7.85
2022-12-28T14:12:34.828Z,5.15
2022-12-28T14:15:05.565Z,6.28
2022-12-28T14:17:36.070Z,3.13
2022-12-28T14:20:06.765Z,1.60
2022-12-28T14:22:39.630Z,3.28
2022-12-28T14:25:15.197Z,2.92
2022-12-28T14:27:48.950Z,2.83
2022-12-28T14:30:31.375Z,2.00
2022-12-28T14:33:13.404Z,1.60
2022-12-28T14:35:50.779Z,2.75
2022-12-28T14:38:24.455Z,1.30
2022-12-28T14:40:59.918Z,2.47
2022-12-28T14:43:32.183Z,3.25
2022-12-28T14:46:18.126Z,2.03
2022-12-28T14:51:29.768Z,3.10
2022-12-28T14:54:23.103Z,1.55
2022-12-28T14:57:01.209Z,2.47
2022-12-28T14:59:35.976Z,1.42
2022-12-28T15:02:06.255Z,1.50
2022-12-28T15:04:39.505Z,1.52
2022-12-28T15:07:11.931Z,1.52
2022-12-28T15:09:42.086Z,1.90
2022-12-28T15:12:17.773Z,1.45
2022-12-28T15:14:48.161Z,1.10
2022-12-28T15:17:18.654Z,2.17
2022-12-28T15:19:49.028Z,1.67
2022-12-28T15:22:19.283Z,2.50
2022-12-28T15:24:49.404Z,4.95
2022-12-28T15:27:22.056Z,4.10
2022-12-28T15:30:09.124Z,6.50
2022-12-28T15:32:42.401Z,7.65
2022-12-28T15:35:12.649Z,1.70
2022-12-28T15:37:42.717Z,1.98
2022-12-28T15:40:14.144Z,2.17
2022-12-28T15:42:49.305Z,2.00
2022-12-28T15:45:19.830Z,1.80
2022-12-28T15:47:49.830Z,1.00
2022-12-28T15:50:20.205Z,1.42
2022-12-28T15:52:50.525Z,1.55
2022-12-28T15:55:21.045Z,1.65
2022-12-28T15:57:53.689Z,1.17
2022-12-28T16:00:23.878Z,1.92
2022-12-28T16:02:55.488Z,1.05
2022-12-28T16:05:25.920Z,1.23
2022-12-28T16:07:56.146Z,1.42
2022-12-28T16:10:26.362Z,0.82
2022-12-28T16:12:58.917Z,1.17
2022-12-28T16:15:29.188Z,1.20
2022-12-28T16:17:59.304Z,1.10
2022-12-28T16:20:30.320Z,0.98
2022-12-28T16:23:00.299Z,1.10
2022-12-28T16:25:30.622Z,1.17
2022-12-28T16:28:03.189Z,1.77
2022-12-28T16:30:33.434Z,1.58
2022-12-28T16:33:03.662Z,1.13
2022-12-28T16:35:33.587Z,1.38
2022-12-28T16:38:03.814Z,1.17
2022-12-28T16:40:34.088Z,1.40
2022-12-28T16:43:08.364Z,1.40
2022-12-28T16:45:39.129Z,1.63
2022-12-28T16:48:10.381Z,1.25
2022-12-28T16:50:40.802Z,1.52
2022-12-28T16:53:11.422Z,1.35
2022-12-28T16:55:43.965Z,1.13
2022-12-28T16:58:16.540Z,1.17
2022-12-28T17:00:46.700Z,1.38
2022-12-28T17:03:17.105Z,1.92
2022-12-28T17:05:50.972Z,1.08
2022-12-28T17:08:21.293Z,1.80
2022-12-28T17:10:51.562Z,1.30
2022-12-28T17:13:24.115Z,2.60
2022-12-28T17:15:54.541Z,2.05
2022-12-28T17:18:24.575Z,2.30
2022-12-28T17:20:54.895Z,1.50
2022-12-28T17:23:25.209Z,1.35
2022-12-28T17:25:57.071Z,1.15
2022-12-28T17:28:29.762Z,0.90
2022-12-28T17:31:08.651Z,1.40
2022-12-28T17:33:40.276Z,1.15
2022-12-28T17:36:11.312Z,1.08
2022-12-28T17:38:42.017Z,1.27
2022-12-28T17:41:14.029Z,0.90
2022-12-28T17:43:48.541Z,1.20
2022-12-28T17:48:48.842Z,1.60
2022-12-28T17:51:19.138Z,1.38
2022-12-28T17:53:49.396Z,1.42
2022-12-28T17:56:19.910Z,1.10
2022-12-28T17:58:57.387Z,1.88
2022-12-28T18:01:28.779Z,1.77
2022-12-28T18:03:59.431Z,1.63
2022-12-28T18:06:29.942Z,2.53
2022-12-28T18:08:59.925Z,1.83
2022-12-28T18:11:30.170Z,2.08
2022-12-28T18:14:02.763Z,1.55
2022-12-28T18:16:32.858Z,1.42
2022-12-28T18:19:03.133Z,1.40
2022-12-28T18:21:33.150Z,1.70
2022-12-28T18:24:03.747Z,1.13
2022-12-28T18:26:33.895Z,1.60
2022-12-28T18:29:06.872Z,1.52
2022-12-28T18:31:37.032Z,1.20
2022-12-28T18:34:07.516Z,2.35
2022-12-28T18:36:37.819Z,1.00
2022-12-28T18:39:08.117Z,1.63
2022-12-28T18:41:38.279Z,1.05
2022-12-28T18:44:11.047Z,1.10
2022-12-28T18:46:41.649Z,2.85
2022-12-28T18:49:12.023Z,4.30
2022-12-28T18:51:42.362Z,1.77
2022-12-28T18:54:12.413Z,1.70
2022-12-28T18:56:42.442Z,1.48
2022-12-28T18:59:15.268Z,1.90
2022-12-28T19:04:35.737Z,1.00
2022-12-28T19:07:06.196Z,1.10
2022-12-28T19:09:36.535Z,1.17
2022-12-28T19:12:07.156Z,1.45
2022-12-28T19:14:39.718Z,1.30
2022-12-28T19:17:10.007Z,2.30
2022-12-28T19:19:40.079Z,1.30
2022-12-28T19:22:10.348Z,1.88
2022-12-28T19:24:40.385Z,1.40
2022-12-28T19:27:10.656Z,1.17
2022-12-28T19:29:43.387Z,1.67
2022-12-28T19:32:13.638Z,1.48
2022-12-28T19:34:43.892Z,1.13
2022-12-28T19:37:13.996Z,1.00
2022-12-28T19:39:44.038Z,3.20
2022-12-28T19:42:14.018Z,2.83
2022-12-28T19:44:46.691Z,1.33
2022-12-28T19:47:17.025Z,1.45
2022-12-28T19:49:47.334Z,2.08
2022-12-28T19:52:17.675Z,1.83
2022-12-28T19:54:47.844Z,1.42
2022-12-28T19:57:18.119Z,1.95
2022-12-28T19:59:51.043Z,1.40
2022-12-28T20:02:21.313Z,1.77
2022-12-28T20:04:51.634Z,1.45
2022-12-28T20:07:21.741Z,1.90
2022-12-28T20:09:53.062Z,3.03
2022-12-28T20:12:24.848Z,2.80
2022-12-28T20:14:57.456Z,1.58
2022-12-28T20:17:29.526Z,1.40
2022-12-28T20:19:59.504Z,3.03
2022-12-28T20:22:29.767Z,2.08
2022-12-28T20:24:59.998Z,2.30
2022-12-28T20:27:30.630Z,4.53
2022-12-28T20:30:03.215Z,1.38
2022-12-28T20:32:33.495Z,2.13
2022-12-28T20:35:03.774Z,1.83
2022-12-28T20:37:33.745Z,1.75
2022-12-28T20:40:04.399Z,1.65
2022-12-28T20:42:47.138Z,1.50
2022-12-28T20:45:19.763Z,1.50
2022-12-28T20:47:49.827Z,2.00
2022-12-28T20:50:20.018Z,2.03
2022-12-28T20:52:50.446Z,1.95
2022-12-28T20:55:20.842Z,1.55
2022-12-28T20:57:53.460Z,1.73
2022-12-28T21:00:28.953Z,1.48
2022-12-28T21:02:59.724Z,1.30
2022-12-28T21:05:30.084Z,1.80
2022-12-28T21:08:00.261Z,1.98
2022-12-28T21:10:30.635Z,1.40
2022-12-28T21:13:00.952Z,1.70
2022-12-28T21:15:33.482Z,1.40
2022-12-28T21:18:03.756Z,2.13
2022-12-28T21:20:38.698Z,1.73
2022-12-28T21:23:09.182Z,6.10
2022-12-28T21:25:39.134Z,2.20
2022-12-28T21:28:09.252Z,3.70
2022-12-28T21:30:41.917Z,2.20
2022-12-28T21:33:12.924Z,1.48
2022-12-28T21:35:43.373Z,1.50
2022-12-28T21:38:13.614Z,1.88
2022-12-28T21:40:43.619Z,1.00
2022-12-28T21:43:13.901Z,1.65
2022-12-28T21:45:46.462Z,1.30
2022-12-28T21:48:16.489Z,1.15
2022-12-28T21:50:46.867Z,1.15
2022-12-28T21:53:17.187Z,1.13
2022-12-28T21:55:47.256Z,1.33
2022-12-28T21:58:17.217Z,1.73
2022-12-28T22:01:02.372Z,1.50
2022-12-28T22:03:53.423Z,1.15
2022-12-28T22:06:23.400Z,1.33
2022-12-28T22:09:05.804Z,1.33
2022-12-28T22:11:48.544Z,1.23
2022-12-28T22:14:18.881Z,1.08
2022-12-28T22:16:51.499Z,0.95
2022-12-28T22:19:21.510Z,1.20
2022-12-28T22:21:51.529Z,1.20
2022-12-28T22:24:21.548Z,1.13
2022-12-28T22:26:51.905Z,1.23
2022-12-28T22:29:24.194Z,1.40
2022-12-28T22:31:56.894Z,1.30
2022-12-28T22:34:27.119Z,1.80
2022-12-28T22:36:57.380Z,1.60
2022-12-28T22:39:27.643Z,1.50
2022-12-28T22:41:57.626Z,1.60
2022-12-28T22:44:27.598Z,1.38
2022-12-28T22:47:00.137Z,1.00
2022-12-28T22:49:30.422Z,0.95
2022-12-28T22:52:00.392Z,1.50
2022-12-28T22:54:30.725Z,1.00
2022-12-28T22:57:00.927Z,0.90
2022-12-28T22:59:31.161Z,0.88
2022-12-28T23:02:03.892Z,1.30
2022-12-28T23:04:34.345Z,0.90
2022-12-28T23:07:04.615Z,1.13
2022-12-28T23:09:36.839Z,0.82
2022-12-28T23:12:07.914Z,0.95
2022-12-28T23:14:51.084Z,0.88
2022-12-28T23:17:26.598Z,1.13
2022-12-28T23:20:09.853Z,0.82
2022-12-28T23:23:07.340Z,0.80
2022-12-28T23:25:50.040Z,0.60
2022-12-28T23:28:20.172Z,0.73
2022-12-28T23:30:51.553Z,0.80
2022-12-28T23:33:24.285Z,0.90
2022-12-28T23:35:54.659Z,0.98
2022-12-28T23:38:24.614Z,0.50
2022-12-28T23:41:14.536Z,1.00
2022-12-28T23:43:44.537Z,0.55
2022-12-28T23:46:14.611Z,0.60
2022-12-28T23:48:47.183Z,0.70
2022-12-28T23:51:18.121Z,0.85
2022-12-28T23:53:49.527Z,0.80
2022-12-28T23:56:19.485Z,0.60
2022-12-28T23:58:52.225Z,0.50
